createdAt,value
2017-06-19T00:00:55.756Z,6.47
2017-06-19T00:03:24.227Z,6.10
2017-06-19T00:05:52.807Z,6.03
2017-06-19T00:08:21.242Z,6.13
2017-06-19T00:10:49.654Z,5.30
2017-06-19T00:13:18.162Z,6.70
2017-06-19T00:15:46.586Z,6.23
2017-06-19T00:18:14.991Z,6.63
2017-06-19T00:20:43.316Z,6.20
2017-06-19T00:23:18.076Z,5.53
2017-06-19T00:25:46.526Z,5.70
2017-06-19T00:28:14.970Z,6.17
2017-06-19T00:30:43.470Z,6.97
2017-06-19T00:33:12.034Z,6.10
2017-06-19T00:35:40.570Z,6.80
2017-06-19T00:38:09.030Z,6.07
2017-06-19T00:40:37.483Z,6.70
2017-06-19T00:43:06.057Z,6.47
2017-06-19T00:45:34.485Z,7.30
2017-06-19T00:48:03.157Z,6.40
2017-06-19T00:50:32.250Z,5.53
2017-06-19T00:53:00.706Z,5.80
2017-06-19T00:55:29.326Z,6.27
2017-06-19T00:57:57.724Z,6.13
2017-06-19T01:00:26.168Z,6.03
2017-06-19T01:02:54.755Z,7.20
2017-06-19T01:05:23.173Z,6.67
2017-06-19T01:07:51.598Z,6.13
2017-06-19T01:10:20.920Z,5.80
2017-06-19T01:12:49.340Z,5.90
2017-06-19T01:15:17.759Z,5.90
2017-06-19T01:17:47.376Z,5.90
2017-06-19T01:20:15.794Z,6.23
2017-06-19T01:22:44.193Z,6.47
2017-06-19T01:25:12.663Z,6.40
2017-06-19T01:27:41.136Z,6.10
2017-06-19T01:30:09.184Z,6.90
2017-06-19T01:32:37.748Z,6.20
2017-06-19T01:35:06.163Z,6.17
2017-06-19T01:37:34.567Z,5.77
2017-06-19T01:40:03.188Z,6.53
2017-06-19T01:42:31.606Z,6.10
2017-06-19T01:45:00.022Z,5.67
2017-06-19T01:47:28.872Z,5.80
2017-06-19T01:49:57.300Z,6.43
2017-06-19T01:52:26.483Z,5.33
2017-06-19T01:54:55.908Z,6.97
2017-06-19T01:57:24.391Z,5.53
2017-06-19T01:59:52.806Z,6.53
2017-06-19T02:02:21.352Z,6.77
2017-06-19T02:04:49.807Z,6.43
2017-06-19T02:07:18.211Z,6.10
2017-06-19T02:09:46.811Z,5.77
2017-06-19T02:12:15.220Z,6.27
2017-06-19T02:14:43.647Z,6.20
2017-06-19T02:17:12.131Z,6.30
2017-06-19T02:19:40.560Z,6.60
2017-06-19T02:22:09.085Z,6.37
2017-06-19T02:24:37.572Z,5.93
2017-06-19T02:27:06.049Z,6.70
2017-06-19T02:29:34.523Z,6.50
2017-06-19T02:32:03.103Z,7.03
2017-06-19T02:34:32.289Z,7.40
2017-06-19T02:37:00.702Z,6.10
2017-06-19T02:39:29.156Z,6.60
2017-06-19T02:41:58.356Z,7.17
2017-06-19T02:44:26.851Z,6.20
2017-06-19T02:46:55.516Z,6.47
2017-06-19T02:49:24.695Z,6.30
2017-06-19T02:51:53.207Z,6.37
2017-06-19T02:54:21.641Z,7.03
2017-06-19T02:56:50.057Z,6.90
2017-06-19T02:59:18.540Z,6.70
2017-06-19T03:01:47.018Z,6.93
2017-06-19T03:04:15.424Z,6.80
2017-06-19T03:06:43.871Z,6.57
2017-06-19T03:09:13.123Z,7.50
2017-06-19T03:11:41.539Z,7.13
2017-06-19T03:14:10.727Z,7.10
2017-06-19T03:16:39.999Z,6.53
2017-06-19T03:19:08.400Z,7.57
2017-06-19T03:21:36.913Z,7.60
2017-06-19T03:24:05.496Z,7.87
2017-06-19T03:26:33.916Z,6.40
2017-06-19T03:29:02.335Z,7.23
2017-06-19T03:31:31.572Z,6.33
2017-06-19T03:34:00.019Z,6.97
2017-06-19T03:36:29.182Z,6.57
2017-06-19T03:38:57.654Z,6.80
2017-06-19T03:41:26.068Z,6.80
2017-06-19T03:43:55.276Z,7.67
2017-06-19T03:46:23.766Z,7.77
2017-06-19T03:48:52.171Z,7.67
2017-06-19T03:51:20.608Z,7.33
2017-06-19T03:53:50.019Z,8.07
2017-06-19T03:56:18.433Z,7.90
2017-06-19T03:58:46.848Z,6.90
2017-06-19T04:01:15.312Z,7.80
2017-06-19T04:03:43.712Z,7.60
2017-06-19T04:06:12.916Z,7.20
2017-06-19T04:08:42.383Z,8.40
2017-06-19T04:11:10.787Z,7.30
2017-06-19T04:13:39.954Z,6.63
2017-06-19T04:16:08.405Z,7.00
2017-06-19T04:18:36.809Z,6.83
2017-06-19T04:21:05.241Z,7.93
2017-06-19T04:23:34.128Z,7.80
2017-06-19T04:26:03.343Z,7.40
2017-06-19T04:28:31.763Z,7.30
2017-06-19T04:30:59.975Z,7.13
2017-06-19T04:33:29.171Z,7.20
2017-06-19T04:35:57.610Z,6.90
2017-06-19T04:38:26.416Z,7.50
2017-06-19T04:40:54.836Z,7.20
2017-06-19T04:43:23.248Z,8.60
2017-06-19T04:45:51.688Z,6.40
2017-06-19T04:48:20.108Z,6.73
2017-06-19T04:50:48.515Z,7.33
2017-06-19T04:53:16.945Z,7.77
2017-06-19T04:55:45.365Z,7.10
2017-06-19T04:58:13.872Z,7.17
2017-06-19T05:00:43.272Z,6.83
2017-06-19T05:03:12.475Z,6.40
2017-06-19T05:05:40.887Z,6.77
2017-06-19T05:08:09.367Z,7.03
2017-06-19T05:10:37.764Z,6.47
2017-06-19T05:13:06.175Z,7.33
2017-06-19T05:15:35.380Z,7.20
2017-06-19T05:18:04.568Z,6.80
2017-06-19T05:20:33.776Z,6.60
2017-06-19T05:23:02.224Z,6.50
2017-06-19T05:25:30.640Z,6.33
2017-06-19T05:27:59.047Z,5.87
2017-06-19T05:30:27.471Z,6.00
2017-06-19T05:32:56.647Z,5.93
2017-06-19T05:35:25.212Z,6.30
2017-06-19T05:37:53.680Z,6.50
2017-06-19T05:40:22.100Z,6.60
2017-06-19T05:42:50.515Z,8.33
2017-06-19T05:45:19.187Z,7.30
2017-06-19T05:47:48.355Z,7.50
2017-06-19T05:50:16.767Z,6.97
2017-06-19T05:52:45.261Z,5.77
2017-06-19T05:55:13.664Z,6.60
2017-06-19T05:57:42.118Z,6.93
2017-06-19T06:00:10.800Z,6.30
2017-06-19T06:02:39.212Z,6.57
2017-06-19T06:05:07.635Z,6.00
2017-06-19T06:07:36.931Z,6.10
2017-06-19T06:10:06.123Z,5.97
2017-06-19T06:12:34.533Z,5.67
2017-06-19T06:15:02.988Z,5.90
2017-06-19T06:17:32.164Z,6.37
2017-06-19T06:20:00.584Z,5.60
2017-06-19T06:22:29.024Z,5.77
2017-06-19T06:24:57.444Z,6.27
2017-06-19T06:27:25.869Z,5.97
2017-06-19T06:29:54.298Z,6.23
2017-06-19T06:32:22.720Z,5.87
2017-06-19T06:34:51.125Z,6.40
2017-06-19T06:37:19.552Z,6.13
2017-06-19T06:39:47.963Z,5.73
2017-06-19T06:42:16.383Z,6.60
2017-06-19T06:44:46.000Z,6.47
2017-06-19T06:47:14.471Z,6.43
2017-06-19T06:49:43.645Z,7.23
2017-06-19T06:52:12.149Z,7.00
2017-06-19T06:54:41.336Z,5.60
2017-06-19T06:57:10.511Z,5.80
2017-06-19T06:59:39.332Z,6.37
2017-06-19T07:02:07.815Z,5.80
2017-06-19T07:04:36.249Z,6.53
2017-06-19T07:07:04.797Z,5.80
2017-06-19T07:09:33.186Z,5.40
2017-06-19T07:12:01.628Z,5.70
2017-06-19T07:14:30.325Z,5.70
2017-06-19T07:16:58.733Z,5.37
2017-06-19T07:19:27.172Z,5.57
2017-06-19T07:21:55.858Z,5.00
2017-06-19T07:24:24.345Z,5.70
2017-06-19T07:26:52.747Z,7.23
2017-06-19T07:29:21.422Z,5.73
2017-06-19T07:31:49.847Z,4.90
2017-06-19T07:34:18.255Z,5.47
2017-06-19T07:36:46.836Z,4.80
2017-06-19T07:39:16.019Z,5.70
2017-06-19T07:41:45.195Z,5.40
2017-06-19T07:44:13.790Z,4.90
2017-06-19T07:46:42.891Z,5.50
2017-06-19T07:49:12.092Z,5.70
2017-06-19T07:51:41.308Z,5.30
2017-06-19T07:54:09.784Z,5.00
2017-06-19T07:56:38.196Z,5.20
2017-06-19T07:59:06.856Z,5.57
2017-06-19T08:01:35.251Z,5.53
2017-06-19T08:04:03.684Z,5.27
2017-06-19T08:06:32.297Z,5.67
2017-06-19T08:09:00.697Z,5.17
2017-06-19T08:11:29.112Z,5.13
2017-06-19T08:13:57.725Z,5.63
2017-06-19T08:16:26.904Z,5.27
2017-06-19T08:18:56.151Z,5.33
2017-06-19T08:21:30.004Z,5.30
2017-06-19T08:23:58.418Z,5.43
2017-06-19T08:26:26.854Z,5.23
2017-06-19T08:28:55.603Z,5.30
2017-06-19T08:31:24.009Z,5.13
2017-06-19T08:33:52.547Z,5.13
2017-06-19T08:36:21.424Z,4.60
2017-06-19T08:38:49.837Z,4.80
2017-06-19T08:41:18.267Z,4.73
2017-06-19T08:43:47.696Z,4.00
2017-06-19T08:46:16.123Z,5.73
2017-06-19T08:48:44.527Z,4.30
2017-06-19T08:51:13.733Z,5.33
2017-06-19T08:53:42.152Z,3.77
2017-06-19T08:56:10.564Z,4.50
2017-06-19T08:58:39.172Z,4.40
2017-06-19T09:01:07.634Z,3.40
2017-06-19T09:03:36.127Z,3.97
2017-06-19T09:06:04.565Z,4.10
2017-06-19T09:08:33.005Z,4.30
2017-06-19T09:11:01.437Z,3.63
2017-06-19T09:13:31.080Z,4.27
2017-06-19T09:15:59.505Z,2.97
2017-06-19T09:18:27.924Z,4.07
2017-06-19T09:20:57.564Z,4.27
2017-06-19T09:23:26.003Z,4.10
2017-06-19T09:25:55.175Z,3.63
2017-06-19T09:28:23.673Z,3.13
2017-06-19T09:30:52.093Z,3.37
2017-06-19T09:33:20.500Z,3.07
2017-06-19T09:35:49.170Z,3.60
2017-06-19T09:38:17.572Z,3.60
2017-06-19T09:40:45.994Z,4.07
2017-06-19T09:43:14.441Z,3.73
2017-06-19T09:45:42.864Z,3.63
2017-06-19T09:48:11.305Z,3.50
2017-06-19T09:50:39.916Z,3.30
2017-06-19T09:53:08.342Z,3.57
2017-06-19T09:55:36.756Z,3.77
2017-06-19T09:58:05.264Z,3.43
2017-06-19T10:00:33.673Z,3.57
2017-06-19T10:03:02.110Z,4.90
2017-06-19T10:05:30.373Z,3.27
2017-06-19T10:07:59.497Z,3.70
2017-06-19T10:10:27.916Z,4.50
2017-06-19T10:12:56.752Z,3.97
2017-06-19T10:15:25.240Z,4.00
2017-06-19T10:17:53.653Z,3.80
2017-06-19T10:20:22.295Z,5.40
2017-06-19T10:22:50.716Z,4.53
2017-06-19T10:25:19.120Z,3.90
2017-06-19T10:27:47.632Z,3.73
2017-06-19T10:30:16.055Z,4.47
2017-06-19T10:32:44.491Z,4.23
2017-06-19T10:35:12.991Z,4.10
2017-06-19T10:37:41.453Z,4.47
2017-06-19T10:40:09.862Z,5.50
2017-06-19T10:42:38.416Z,3.70
2017-06-19T10:45:06.840Z,3.60
2017-06-19T10:47:35.257Z,4.53
2017-06-19T10:50:03.438Z,4.23
2017-06-19T10:52:32.623Z,4.20
2017-06-19T10:55:01.047Z,3.60
2017-06-19T10:57:29.538Z,4.03
2017-06-19T10:59:57.944Z,4.40
2017-06-19T11:02:26.392Z,3.80
2017-06-19T11:04:55.266Z,3.97
2017-06-19T11:07:23.727Z,4.97
2017-06-19T11:09:52.213Z,3.57
2017-06-19T11:12:20.880Z,3.90
2017-06-19T11:14:50.052Z,3.60
2017-06-19T11:17:18.472Z,3.50
2017-06-19T11:19:46.900Z,3.83
2017-06-19T11:22:15.312Z,3.83
2017-06-19T11:24:44.496Z,3.57
2017-06-19T11:27:13.095Z,4.10
2017-06-19T11:29:42.276Z,6.00
2017-06-19T11:32:10.687Z,3.60
2017-06-19T11:34:39.273Z,3.70
2017-06-19T11:37:07.703Z,5.47
2017-06-19T11:39:36.142Z,8.50
2017-06-19T11:42:04.620Z,3.80
2017-06-19T11:44:33.039Z,4.00
2017-06-19T11:47:01.451Z,4.23
2017-06-19T11:49:29.889Z,3.97
2017-06-19T11:51:58.301Z,3.47
2017-06-19T11:54:27.512Z,3.23
2017-06-19T11:56:55.977Z,3.63
2017-06-19T11:59:24.395Z,4.17
2017-06-19T12:01:52.813Z,6.90
2017-06-19T12:04:21.641Z,3.80
2017-06-19T12:06:50.123Z,3.40
2017-06-19T12:09:18.557Z,3.47
2017-06-19T12:11:47.228Z,3.97
2017-06-19T12:14:15.652Z,3.27
2017-06-19T12:16:44.836Z,3.77
2017-06-19T12:19:13.741Z,4.10
2017-06-19T12:21:42.923Z,3.80
2017-06-19T12:24:11.353Z,4.00
2017-06-19T12:26:40.125Z,3.20
2017-06-19T12:29:08.533Z,4.13
2017-06-19T12:31:36.948Z,4.60
2017-06-19T12:34:05.399Z,8.73
2017-06-19T12:36:33.807Z,11.77
2017-06-19T12:39:02.999Z,7.30
2017-06-19T12:41:31.529Z,4.53
2017-06-19T12:43:59.967Z,3.10
2017-06-19T12:46:29.226Z,3.37
2017-06-19T12:48:57.664Z,3.47
2017-06-19T12:51:26.377Z,3.07
2017-06-19T12:53:55.638Z,4.10
2017-06-19T12:56:25.070Z,3.80
2017-06-19T12:58:53.507Z,3.83
2017-06-19T13:01:22.731Z,3.90
2017-06-19T13:03:53.976Z,4.43
2017-06-19T13:06:23.701Z,3.40
2017-06-19T13:08:52.172Z,3.93
2017-06-19T13:11:20.809Z,3.63
2017-06-19T13:13:49.217Z,3.77
2017-06-19T13:16:17.973Z,3.57
2017-06-19T13:18:46.404Z,4.30
2017-06-19T13:21:14.847Z,3.83
2017-06-19T13:23:44.130Z,4.37
2017-06-19T13:26:12.533Z,4.37
2017-06-19T13:28:41.706Z,4.30
2017-06-19T13:31:11.036Z,5.07
2017-06-19T13:33:39.445Z,4.13
2017-06-19T13:36:07.931Z,4.07
2017-06-19T13:38:36.404Z,3.93
2017-06-19T13:41:05.222Z,3.70
2017-06-19T13:43:33.734Z,4.40
2017-06-19T13:46:02.191Z,3.77
2017-06-19T13:48:30.710Z,4.10
2017-06-19T13:50:59.119Z,3.60
2017-06-19T13:53:27.889Z,3.83
2017-06-19T13:55:56.663Z,3.87
2017-06-19T13:58:25.203Z,4.27
2017-06-19T14:00:53.912Z,4.50
2017-06-19T14:03:22.327Z,3.97
2017-06-19T14:05:50.978Z,3.97
2017-06-19T14:08:19.429Z,4.40
2017-06-19T14:10:47.840Z,4.10
2017-06-19T14:13:16.358Z,4.67
2017-06-19T14:15:44.804Z,4.27
2017-06-19T14:18:13.234Z,5.83
2017-06-19T14:20:41.704Z,4.67
2017-06-19T14:23:10.260Z,4.53
2017-06-19T14:25:38.729Z,4.97
2017-06-19T14:28:07.200Z,4.07
2017-06-19T14:30:36.756Z,4.20
2017-06-19T14:33:05.199Z,4.33
2017-06-19T14:35:33.666Z,3.77
2017-06-19T14:38:02.116Z,3.77
2017-06-19T14:40:30.524Z,3.63
2017-06-19T14:42:58.948Z,3.30
2017-06-19T14:45:27.376Z,5.80
2017-06-19T14:47:56.555Z,12.70
2017-06-19T14:50:24.982Z,10.60
2017-06-19T14:52:53.425Z,8.73
2017-06-19T14:55:22.608Z,9.00
2017-06-19T14:57:51.024Z,6.30
2017-06-19T15:00:19.451Z,7.30
2017-06-19T15:02:47.872Z,7.40
2017-06-19T15:05:16.285Z,6.70
2017-06-19T15:07:44.749Z,4.57
2017-06-19T15:10:13.203Z,5.17
2017-06-19T15:12:41.664Z,3.93
2017-06-19T15:15:10.281Z,5.87
2017-06-19T15:17:38.712Z,4.20
2017-06-19T15:20:07.132Z,4.53
2017-06-19T15:22:37.569Z,4.60
2017-06-19T15:25:06.056Z,4.70
2017-06-19T15:27:34.525Z,4.20
2017-06-19T15:30:03.220Z,3.93
2017-06-19T15:32:31.620Z,4.60
2017-06-19T15:35:00.164Z,3.50
2017-06-19T15:37:28.756Z,4.00
2017-06-19T15:39:57.195Z,3.77
2017-06-19T15:42:25.663Z,4.20
2017-06-19T15:44:54.107Z,3.63
2017-06-19T15:47:22.564Z,4.00
2017-06-19T15:49:51.073Z,3.80
2017-06-19T15:52:19.526Z,3.90
2017-06-19T15:54:47.976Z,4.20
2017-06-19T15:57:16.411Z,4.70
2017-06-19T15:59:44.961Z,5.23
2017-06-19T16:02:13.410Z,5.90
2017-06-19T16:04:41.849Z,6.50
2017-06-19T16:07:10.542Z,6.20
2017-06-19T16:09:39.012Z,5.80
2017-06-19T16:12:07.492Z,5.87
2017-06-19T16:14:35.961Z,3.97
2017-06-19T16:17:04.426Z,4.87
2017-06-19T16:19:32.919Z,4.57
2017-06-19T16:22:01.588Z,4.30
2017-06-19T16:24:30.066Z,4.00
2017-06-19T16:26:58.515Z,4.70
2017-06-19T16:29:27.134Z,5.17
2017-06-19T16:31:55.583Z,5.10
2017-06-19T16:34:24.087Z,3.40
2017-06-19T16:36:52.676Z,5.47
2017-06-19T16:39:21.102Z,7.53
2017-06-19T16:41:49.598Z,6.07
2017-06-19T16:44:19.030Z,8.83
2017-06-19T16:46:47.440Z,22.23
2017-06-19T16:49:16.003Z,21.87
2017-06-19T16:51:44.514Z,4.60
2017-06-19T16:54:12.961Z,15.00
2017-06-19T16:56:41.769Z,14.93
2017-06-19T16:59:10.416Z,12.57
2017-06-19T17:01:38.832Z,18.40
2017-06-19T17:04:07.372Z,17.87
2017-06-19T17:06:35.815Z,13.90
2017-06-19T17:09:03.543Z,14.70
2017-06-19T17:11:31.974Z,8.03
2017-06-19T17:14:00.573Z,4.90
2017-06-19T17:16:28.976Z,8.50
2017-06-19T17:18:57.739Z,3.63
2017-06-19T17:21:26.420Z,4.37
2017-06-19T17:23:55.343Z,5.83
2017-06-19T17:26:23.795Z,3.93
2017-06-19T17:28:52.509Z,4.13
2017-06-19T17:31:21.022Z,5.27
2017-06-19T17:33:49.437Z,8.77
2017-06-19T17:36:18.064Z,4.90
2017-06-19T17:38:46.476Z,4.87
2017-06-19T17:41:14.985Z,4.27
2017-06-19T17:43:43.617Z,5.60
2017-06-19T17:46:12.044Z,5.70
2017-06-19T17:48:40.547Z,5.30
2017-06-19T17:51:09.228Z,6.33
2017-06-19T17:53:37.674Z,6.37
2017-06-19T17:56:07.427Z,4.70
2017-06-19T17:58:36.184Z,7.40
2017-06-19T18:01:04.656Z,7.53
2017-06-19T18:03:33.068Z,6.13
2017-06-19T18:06:01.723Z,7.17
2017-06-19T18:08:30.149Z,6.03
2017-06-19T18:10:58.575Z,6.80
2017-06-19T18:13:27.060Z,5.90
2017-06-19T18:15:55.500Z,5.27
2017-06-19T18:18:23.913Z,7.23
2017-06-19T18:20:52.512Z,5.50
2017-06-19T18:23:20.936Z,5.97
2017-06-19T18:25:49.351Z,5.80
2017-06-19T18:28:17.934Z,6.30
2017-06-19T18:30:46.376Z,5.60
2017-06-19T18:33:14.792Z,5.70
2017-06-19T18:35:44.400Z,5.60
2017-06-19T18:38:12.829Z,6.10
2017-06-19T18:40:41.266Z,5.03
2017-06-19T18:43:09.961Z,5.60
2017-06-19T18:45:38.392Z,6.27
2017-06-19T18:48:06.809Z,6.17
2017-06-19T18:50:35.512Z,5.90
2017-06-19T18:53:03.928Z,6.30
2017-06-19T18:55:32.365Z,6.73
2017-06-19T18:58:00.854Z,6.50
2017-06-19T19:00:29.271Z,5.60
2017-06-19T19:02:57.678Z,5.37
2017-06-19T19:05:27.284Z,5.80
2017-06-19T19:07:56.473Z,5.83
2017-06-19T19:10:24.905Z,6.43
2017-06-19T19:12:53.537Z,6.77
2017-06-19T19:15:21.954Z,6.50
2017-06-19T19:17:50.177Z,6.50
2017-06-19T19:20:18.625Z,8.30
2017-06-19T19:22:47.041Z,6.97
2017-06-19T19:25:16.231Z,6.80
2017-06-19T19:27:44.654Z,7.23
2017-06-19T19:30:13.091Z,7.27
2017-06-19T19:32:41.696Z,6.67
2017-06-19T19:35:10.906Z,7.87
2017-06-19T19:37:39.329Z,10.17
2017-06-19T19:40:07.787Z,7.07
2017-06-19T19:42:36.217Z,6.93
2017-06-19T19:45:04.657Z,7.27
2017-06-19T19:47:33.095Z,6.90
2017-06-19T19:50:01.528Z,9.47
2017-06-19T19:52:29.964Z,7.17
2017-06-19T19:54:58.403Z,7.77
2017-06-19T19:57:27.607Z,8.47
2017-06-19T19:59:56.069Z,7.47
2017-06-19T20:02:24.472Z,9.33
2017-06-19T20:04:52.961Z,7.27
2017-06-19T20:07:21.384Z,7.47
2017-06-19T20:09:50.055Z,8.30
2017-06-19T20:12:18.487Z,7.60
2017-06-19T20:14:46.940Z,7.87
2017-06-19T20:17:15.473Z,7.80
2017-06-19T20:19:43.904Z,7.47
2017-06-19T20:22:12.336Z,7.00
2017-06-19T20:24:40.800Z,6.87
2017-06-19T20:27:09.294Z,8.90
2017-06-19T20:29:37.745Z,7.33
2017-06-19T20:32:06.937Z,7.90
2017-06-19T20:34:36.177Z,11.13
2017-06-19T20:37:04.589Z,9.50
2017-06-19T20:39:33.136Z,8.23
2017-06-19T20:42:01.624Z,8.00
2017-06-19T20:44:30.141Z,8.23
2017-06-19T20:46:58.611Z,7.57
2017-06-19T20:49:27.052Z,8.07
2017-06-19T20:51:55.525Z,8.00
2017-06-19T20:54:23.973Z,8.77
2017-06-19T20:56:53.169Z,8.00
2017-06-19T20:59:21.978Z,8.93
2017-06-19T21:01:50.388Z,7.87
2017-06-19T21:04:20.442Z,8.70
2017-06-19T21:06:48.879Z,7.33
2017-06-19T21:09:17.299Z,7.47
2017-06-19T21:11:45.742Z,8.30
2017-06-19T21:14:14.198Z,7.07
2017-06-19T21:16:42.615Z,8.87
2017-06-19T21:19:11.042Z,7.60
2017-06-19T21:21:39.465Z,8.03
2017-06-19T21:24:08.107Z,7.00
2017-06-19T21:26:36.555Z,6.97
2017-06-19T21:29:05.068Z,7.20
2017-06-19T21:31:33.871Z,7.50
2017-06-19T21:34:02.297Z,7.07
2017-06-19T21:36:30.724Z,6.97
2017-06-19T21:38:59.167Z,7.47
2017-06-19T21:41:27.576Z,7.50
2017-06-19T21:43:56.004Z,7.50
2017-06-19T21:46:24.637Z,8.00
2017-06-19T21:48:53.052Z,6.90
2017-06-19T21:51:22.263Z,7.27
2017-06-19T21:53:50.840Z,8.30
2017-06-19T21:56:19.263Z,8.00
2017-06-19T21:58:48.432Z,8.03
2017-06-19T22:01:16.879Z,7.30
2017-06-19T22:03:45.294Z,7.47
2017-06-19T22:06:13.725Z,7.93
2017-06-19T22:08:42.309Z,8.87
2017-06-19T22:11:10.720Z,7.60
2017-06-19T22:13:39.150Z,7.80
2017-06-19T22:16:08.049Z,7.70
2017-06-19T22:18:36.513Z,9.40
2017-06-19T22:21:10.416Z,9.20
2017-06-19T22:23:39.407Z,9.27
2017-06-19T22:26:07.895Z,9.23
2017-06-19T22:28:36.793Z,7.97
2017-06-19T22:31:05.195Z,8.77
2017-06-19T22:33:33.614Z,8.57
2017-06-19T22:36:02.055Z,8.07
2017-06-19T22:38:30.471Z,8.43
2017-06-19T22:40:58.876Z,7.80
2017-06-19T22:43:27.336Z,8.23
2017-06-19T22:45:56.525Z,8.33
2017-06-19T22:48:25.029Z,8.80
2017-06-19T22:50:54.297Z,9.07
2017-06-19T22:53:22.753Z,7.80
2017-06-19T22:55:51.189Z,8.63
2017-06-19T22:58:19.664Z,8.30
2017-06-19T23:00:48.850Z,9.13
2017-06-19T23:03:18.032Z,8.67
2017-06-19T23:05:46.653Z,9.60
2017-06-19T23:08:15.101Z,9.70
2017-06-19T23:10:43.522Z,9.20
2017-06-19T23:13:12.207Z,8.90
2017-06-19T23:15:40.623Z,9.20
2017-06-19T23:18:09.156Z,9.13
2017-06-19T23:20:37.752Z,8.90
2017-06-19T23:23:06.186Z,9.27
2017-06-19T23:25:34.711Z,8.57
2017-06-19T23:28:03.145Z,8.37
2017-06-19T23:30:31.579Z,8.67
2017-06-19T23:32:59.997Z,9.07
2017-06-19T23:35:29.052Z,9.87
2017-06-19T23:37:57.502Z,9.77
2017-06-19T23:40:26.679Z,10.10
2017-06-19T23:42:55.895Z,9.67
2017-06-19T23:45:25.095Z,9.30
2017-06-19T23:47:53.594Z,10.53
2017-06-19T23:50:22.265Z,10.03
2017-06-19T23:52:50.708Z,9.67
2017-06-19T23:55:19.252Z,9.27
2017-06-19T23:57:47.800Z,10.27
